createdAt,value
2022-10-07T00:03:36.708Z,101793.93
2022-10-07T00:07:15.928Z,101800.66
2022-10-07T00:10:52.177Z,101796.92
2022-10-07T00:14:29.873Z,101798.29
2022-10-07T00:18:07.159Z,101801.41
2022-10-07T00:21:45.793Z,101803.77
2022-10-07T00:25:22.498Z,101797.66
2022-10-07T00:29:02.248Z,101802.63
2022-10-07T00:32:37.812Z,101795.05
2022-10-07T00:36:28.094Z,101789.55
2022-10-07T00:40:03.511Z,101791.72
2022-10-07T00:43:41.166Z,101792.58
2022-10-07T00:47:26.180Z,101789.55
2022-10-07T00:51:02.846Z,101793.13
2022-10-07T00:54:41.191Z,101792.52
2022-10-07T00:58:17.641Z,101793.84
2022-10-07T01:01:55.367Z,101792.58
2022-10-07T01:05:32.170Z,101792.30
2022-10-07T01:09:13.100Z,101789.21
2022-10-07T01:12:57.596Z,101790.25
2022-10-07T01:16:43.352Z,101791.95
2022-10-07T01:20:54.653Z,101789.29
2022-10-07T01:24:42.001Z,101788.02
2022-10-07T01:28:26.131Z,101786.58
2022-10-07T01:32:13.203Z,101786.95
2022-10-07T01:35:52.193Z,101784.77
2022-10-07T01:39:37.850Z,101786.62
2022-10-07T01:43:20.134Z,101789.89
2022-10-07T01:46:55.867Z,101787.92
2022-10-07T01:50:34.084Z,101788.50
2022-10-07T01:54:45.054Z,101789.14
2022-10-07T01:58:57.074Z,101787.26
2022-10-07T02:02:48.698Z,101789.72
2022-10-07T02:07:01.222Z,101791.11
2022-10-07T02:10:48.759Z,101789.25
2022-10-07T02:14:49.654Z,101786.50
2022-10-07T02:18:28.516Z,101791.91
2022-10-07T02:22:04.329Z,101794.38
2022-10-07T02:25:48.043Z,101794.48
2022-10-07T02:29:31.373Z,101790.27
2022-10-07T02:33:09.971Z,101790.50
2022-10-07T02:36:59.068Z,101789.07
2022-10-07T02:40:44.016Z,101793.30
2022-10-07T02:44:35.552Z,101794.57
2022-10-07T02:48:28.951Z,101792.39
2022-10-07T02:52:17.734Z,101790.64
2022-10-07T02:55:55.614Z,101791.70
2022-10-07T02:59:33.999Z,101791.27
2022-10-07T03:03:09.174Z,101786.61
2022-10-07T03:06:46.933Z,101789.33
2022-10-07T03:10:27.552Z,101787.85
2022-10-07T03:14:05.964Z,101786.35
2022-10-07T03:17:42.299Z,101790.41
2022-10-07T03:21:19.222Z,101788.91
2022-10-07T03:24:56.937Z,101784.23
2022-10-07T03:28:38.175Z,101784.09
2022-10-07T03:32:13.516Z,101783.63
2022-10-07T03:35:51.433Z,101780.69
2022-10-07T03:39:28.930Z,101783.03
2022-10-07T03:43:07.794Z,101781.02
2022-10-07T03:46:44.322Z,101778.41
2022-10-07T03:50:21.980Z,101772.70
2022-10-07T03:53:59.890Z,101772.72
2022-10-07T03:57:59.131Z,101773.64
2022-10-07T04:01:35.058Z,101771.02
2022-10-07T04:05:12.650Z,101768.46
2022-10-07T04:08:55.674Z,101765.68
2022-10-07T04:12:32.708Z,101763.52
2022-10-07T04:16:13.498Z,101762.91
2022-10-07T04:19:48.789Z,101757.35
2022-10-07T04:23:26.873Z,101758.02
2022-10-07T04:27:05.309Z,101761.29
2022-10-07T04:30:44.557Z,101757.09
2022-10-07T04:34:19.835Z,101754.40
2022-10-07T04:37:57.729Z,101757.34
2022-10-07T04:41:36.833Z,101758.54
2022-10-07T04:45:12.871Z,101755.46
2022-10-07T04:48:52.604Z,101754.46
2022-10-07T04:52:30.876Z,101757.14
2022-10-07T04:56:07.353Z,101752.68
2022-10-07T04:59:44.679Z,101753.38
2022-10-07T05:03:28.774Z,101751.16
2022-10-07T05:07:04.975Z,101749.80
2022-10-07T05:10:45.710Z,101746.80
2022-10-07T05:14:24.124Z,101745.63
2022-10-07T05:18:22.796Z,101745.94
2022-10-07T05:21:59.915Z,101747.05
2022-10-07T05:25:38.589Z,101747.92
2022-10-07T05:29:15.938Z,101752.23
2022-10-07T05:32:54.974Z,101754.52
2022-10-07T05:36:31.116Z,101754.38
2022-10-07T05:40:09.933Z,101757.48
2022-10-07T05:43:48.427Z,101758.07
2022-10-07T05:47:27.412Z,101754.41
2022-10-07T05:51:08.437Z,101760.65
2022-10-07T05:54:44.233Z,101763.86
2022-10-07T05:58:23.069Z,101765.61
2022-10-07T06:02:00.610Z,101764.55
2022-10-07T06:05:37.623Z,101761.63
2022-10-07T06:09:35.255Z,101767.79
2022-10-07T06:13:12.282Z,101771.19
2022-10-07T06:16:49.470Z,101774.80
2022-10-07T06:20:29.160Z,101776.20
2022-10-07T06:24:06.523Z,101779.99
2022-10-07T06:28:03.725Z,101781.01
2022-10-07T06:32:00.672Z,101783.79
2022-10-07T06:35:38.260Z,101783.03
2022-10-07T06:39:19.839Z,101780.94
2022-10-07T06:42:58.209Z,101783.35
2022-10-07T06:46:55.357Z,101780.46
2022-10-07T06:50:37.254Z,101782.31
2022-10-07T06:54:28.538Z,101782.08
2022-10-07T06:58:11.252Z,101783.06
2022-10-07T07:01:50.135Z,101780.84
2022-10-07T07:05:26.293Z,101788.70
2022-10-07T07:09:05.578Z,101786.37
2022-10-07T07:12:42.773Z,101788.73
2022-10-07T07:16:21.479Z,101786.44
2022-10-07T07:19:58.182Z,101790.30
2022-10-07T07:23:35.637Z,101786.84
2022-10-07T07:27:15.410Z,101786.09
2022-10-07T07:30:52.685Z,101785.31
2022-10-07T07:34:30.794Z,101786.85
2022-10-07T07:38:08.990Z,101784.30
2022-10-07T07:41:48.531Z,101782.75
2022-10-07T07:45:45.109Z,101783.56
2022-10-07T07:49:23.614Z,101784.96
2022-10-07T07:53:03.058Z,101784.55
2022-10-07T07:56:39.994Z,101782.33
2022-10-07T08:00:19.232Z,101785.34
2022-10-07T08:03:56.291Z,101789.34
2022-10-07T08:07:36.188Z,101784.82
2022-10-07T08:11:14.999Z,101779.09
2022-10-07T08:14:52.325Z,101779.48
2022-10-07T08:18:29.212Z,101777.40
2022-10-07T08:22:07.715Z,101779.06
2022-10-07T08:25:45.014Z,101770.98
2022-10-07T08:29:22.257Z,101770.02
2022-10-07T08:33:01.546Z,101772.66
2022-10-07T08:36:38.162Z,101766.81
2022-10-07T08:40:18.983Z,101762.74
2022-10-07T08:43:58.193Z,101765.61
2022-10-07T08:47:44.563Z,101757.80
2022-10-07T08:51:29.487Z,101758.81
2022-10-07T08:55:43.936Z,101753.89
2022-10-07T08:59:22.708Z,101749.49
2022-10-07T09:03:14.862Z,101749.88
2022-10-07T09:07:00.793Z,101741.83
2022-10-07T09:10:42.708Z,101741.80
2022-10-07T09:14:26.171Z,101742.63
2022-10-07T09:18:13.021Z,101738.55
2022-10-07T09:21:51.232Z,101736.22
2022-10-07T09:25:30.330Z,101730.10
2022-10-07T09:29:09.991Z,101726.89
2022-10-07T09:32:48.952Z,101727.80
2022-10-07T09:36:26.300Z,101718.64
2022-10-07T09:40:30.330Z,101717.08
2022-10-07T09:44:13.392Z,101709.87
2022-10-07T09:47:55.503Z,101706.66
2022-10-07T09:51:32.972Z,101702.27
2022-10-07T09:55:31.916Z,101697.67
2022-10-07T09:59:21.368Z,101693.44
2022-10-07T10:03:04.920Z,101681.92
2022-10-07T10:06:49.732Z,101679.45
2022-10-07T10:10:37.355Z,101678.50
2022-10-07T10:14:41.570Z,101675.23
2022-10-07T10:18:28.291Z,101666.44
2022-10-07T10:22:04.597Z,101663.17
2022-10-07T10:26:14.848Z,101653.04
2022-10-07T10:29:56.234Z,101646.69
2022-10-07T10:33:47.892Z,101644.67
2022-10-07T10:37:46.119Z,101639.90
2022-10-07T10:41:36.433Z,101636.81
2022-10-07T10:45:37.773Z,101630.17
2022-10-07T10:49:30.533Z,101622.68
2022-10-07T10:53:12.794Z,101618.61
2022-10-07T10:57:13.161Z,101617.07
2022-10-07T11:01:08.363Z,101614.21
2022-10-07T11:04:57.597Z,101606.71
2022-10-07T11:08:38.400Z,101596.23
2022-10-07T11:12:25.026Z,101593.86
2022-10-07T11:16:19.160Z,101583.95
2022-10-07T11:20:15.372Z,101573.77
2022-10-07T11:24:34.835Z,101571.92
2022-10-07T11:28:22.423Z,101553.92
2022-10-07T11:32:20.708Z,101549.14
2022-10-07T11:36:14.234Z,101539.89
2022-10-07T11:39:53.950Z,101529.86
2022-10-07T11:43:38.469Z,101521.92
2022-10-07T11:47:20.395Z,101515.02
2022-10-07T11:51:11.881Z,101515.42
2022-10-07T11:55:00.198Z,101505.36
2022-10-07T11:58:39.223Z,101503.50
2022-10-07T12:02:28.349Z,101495.20
2022-10-07T12:06:11.806Z,101484.49
2022-10-07T12:10:00.318Z,101476.74
2022-10-07T12:13:41.476Z,101468.84
2022-10-07T12:17:21.369Z,101465.50
2022-10-07T12:21:05.175Z,101454.91
2022-10-07T12:24:46.412Z,101447.34
2022-10-07T12:28:49.951Z,101447.36
2022-10-07T12:32:56.589Z,101447.81
2022-10-07T12:36:33.781Z,101442.12
2022-10-07T12:40:20.849Z,101438.45
2022-10-07T12:44:23.138Z,101435.85
2022-10-07T12:48:05.594Z,101429.22
2022-10-07T12:51:45.153Z,101421.30
2022-10-07T12:55:37.638Z,101413.25
2022-10-07T12:59:51.131Z,101410.95
2022-10-07T13:03:57.692Z,101403.95
2022-10-07T13:07:49.609Z,101397.55
2022-10-07T13:11:35.670Z,101382.19
2022-10-07T13:15:18.635Z,101383.99
2022-10-07T13:19:07.397Z,101380.95
2022-10-07T13:22:49.218Z,101374.38
2022-10-07T13:26:27.359Z,101372.48
2022-10-07T13:30:06.294Z,101365.91
2022-10-07T13:33:44.695Z,101358.36
2022-10-07T13:37:36.754Z,101350.77
2022-10-07T13:41:29.144Z,101342.42
2022-10-07T13:45:06.355Z,101334.86
2022-10-07T13:48:51.391Z,101329.41
2022-10-07T13:52:36.792Z,101325.23
2022-10-07T13:56:23.530Z,101319.77
2022-10-07T14:00:00.490Z,101316.13
2022-10-07T14:04:01.040Z,101311.73
2022-10-07T14:07:42.029Z,101308.88
2022-10-07T14:11:23.314Z,101297.48
2022-10-07T14:15:27.472Z,101291.12
2022-10-07T14:19:06.187Z,101287.34
2022-10-07T14:22:43.740Z,101283.12
2022-10-07T14:26:20.415Z,101276.54
2022-10-07T14:29:58.943Z,101265.75
2022-10-07T14:34:08.568Z,101256.59
2022-10-07T14:37:45.301Z,101240.64
2022-10-07T14:41:24.244Z,101230.98
2022-10-07T14:45:03.523Z,101223.79
2022-10-07T14:48:40.924Z,101222.91
2022-10-07T14:52:35.129Z,101211.35
2022-10-07T14:56:15.454Z,101198.30
2022-10-07T14:59:52.893Z,101190.95
2022-10-07T15:03:31.197Z,101182.63
2022-10-07T15:07:09.917Z,101177.48
2022-10-07T15:10:46.458Z,101172.59
2022-10-07T15:14:23.890Z,101165.73
2022-10-07T15:18:01.385Z,101160.62
2022-10-07T15:21:58.879Z,101159.82
2022-10-07T15:25:55.999Z,101160.33
2022-10-07T15:29:33.751Z,101152.84
2022-10-07T15:33:13.004Z,101152.31
2022-10-07T15:36:50.533Z,101146.09
2022-10-07T15:40:29.455Z,101137.90
2022-10-07T15:44:17.686Z,101133.98
2022-10-07T15:48:00.230Z,101129.11
2022-10-07T15:51:41.249Z,101132.67
2022-10-07T15:55:19.584Z,101130.02
2022-10-07T15:58:56.414Z,101125.53
2022-10-07T16:02:34.540Z,101128.11
2022-10-07T16:06:21.114Z,101123.77
2022-10-07T16:09:58.473Z,101120.50
2022-10-07T16:13:38.399Z,101119.59
2022-10-07T16:17:15.004Z,101119.75
2022-10-07T16:20:52.377Z,101118.55
2022-10-07T16:24:35.167Z,101116.95
2022-10-07T16:28:31.885Z,101117.94
2022-10-07T16:32:10.910Z,101121.02
2022-10-07T16:35:47.465Z,101117.13
2022-10-07T16:39:25.633Z,101114.09
2022-10-07T16:43:03.670Z,101115.58
2022-10-07T16:46:41.261Z,101114.70
2022-10-07T16:50:17.928Z,101114.17
2022-10-07T16:54:01.956Z,101111.41
2022-10-07T16:57:39.071Z,101107.52
2022-10-07T17:01:17.885Z,101102.83
2022-10-07T17:04:54.113Z,101094.49
2022-10-07T17:08:40.400Z,101086.09
2022-10-07T17:12:18.492Z,101084.02
2022-10-07T17:15:56.203Z,101083.29
2022-10-07T17:19:54.249Z,101079.74
2022-10-07T17:23:33.215Z,101075.67
2022-10-07T17:27:10.234Z,101074.56
2022-10-07T17:30:47.172Z,101075.91
2022-10-07T17:34:24.894Z,101075.36
2022-10-07T17:38:06.262Z,101071.55
2022-10-07T17:41:43.014Z,101070.45
2022-10-07T17:45:20.337Z,101064.95
2022-10-07T17:49:02.874Z,101060.72
2022-10-07T17:52:39.355Z,101051.58
2022-10-07T17:56:17.979Z,101053.69
2022-10-07T17:59:54.396Z,101051.10
2022-10-07T18:03:32.471Z,101049.27
2022-10-07T18:07:10.628Z,101046.56
2022-10-07T18:11:07.431Z,101041.73
2022-10-07T18:15:04.069Z,101034.13
2022-10-07T18:18:59.373Z,101030.17
2022-10-07T18:22:18.023Z,101027.95
2022-10-07T18:26:02.625Z,101025.34
2022-10-07T18:29:39.605Z,101022.63
2022-10-07T18:33:17.495Z,101022.52
2022-10-07T18:36:57.016Z,101025.16
2022-10-07T18:40:34.673Z,101020.02
2022-10-07T18:44:12.052Z,101015.95
2022-10-07T18:47:50.383Z,101016.33
2022-10-07T18:51:27.248Z,101011.50
2022-10-07T18:55:06.788Z,101014.11
2022-10-07T18:58:46.207Z,101015.14
2022-10-07T19:02:22.854Z,101016.59
2022-10-07T19:06:07.253Z,101016.08
2022-10-07T19:09:43.710Z,101016.66
2022-10-07T19:13:49.939Z,101014.33
2022-10-07T19:16:59.384Z,101013.17
2022-10-07T19:20:37.136Z,101012.34
2022-10-07T19:24:16.155Z,101008.45
2022-10-07T19:27:52.665Z,101011.77
2022-10-07T19:31:42.193Z,101010.17
2022-10-07T19:35:20.040Z,101007.25
2022-10-07T19:38:58.857Z,101000.53
2022-10-07T19:42:36.623Z,100994.17
2022-10-07T19:46:14.521Z,100988.05
2022-10-07T19:49:52.983Z,100987.56
2022-10-07T19:53:47.692Z,100984.06
2022-10-07T19:57:07.746Z,100977.70
2022-10-07T20:00:45.050Z,100976.05
2022-10-07T20:04:21.963Z,100975.42
2022-10-07T20:07:59.910Z,100974.30
2022-10-07T20:11:38.153Z,100975.92
2022-10-07T20:15:16.247Z,100971.14
2022-10-07T20:19:11.134Z,100970.17
2022-10-07T20:22:49.494Z,100963.59
2022-10-07T20:26:34.837Z,100960.36
2022-10-07T20:30:18.116Z,100959.06
2022-10-07T20:33:56.205Z,100957.27
2022-10-07T20:37:32.874Z,100952.84
2022-10-07T20:41:28.921Z,100947.92
2022-10-07T20:45:07.834Z,100947.92
2022-10-07T20:48:45.826Z,100943.95
2022-10-07T20:52:25.833Z,100943.98
2022-10-07T20:56:04.133Z,100940.10
2022-10-07T20:59:40.833Z,100937.77
2022-10-07T21:03:18.594Z,100934.06
2022-10-07T21:06:56.954Z,100930.63
2022-10-07T21:10:34.334Z,100926.56
2022-10-07T21:14:11.719Z,100918.06
2022-10-07T21:17:49.039Z,100914.04
2022-10-07T21:21:28.254Z,100914.17
2022-10-07T21:25:06.741Z,100910.21
2022-10-07T21:28:43.911Z,100907.20
2022-10-07T21:32:21.056Z,100900.23
2022-10-07T21:36:06.214Z,100893.23
2022-10-07T21:39:42.719Z,100884.71
2022-10-07T21:43:21.851Z,100884.34
2022-10-07T21:47:00.218Z,100878.16
2022-10-07T21:50:37.716Z,100875.30
2022-10-07T21:54:15.667Z,100873.44
2022-10-07T21:57:52.794Z,100868.44
2022-10-07T22:01:32.664Z,100862.02
2022-10-07T22:05:11.765Z,100858.64
2022-10-07T22:08:51.999Z,100851.92
2022-10-07T22:12:31.935Z,100851.75
2022-10-07T22:16:15.528Z,100846.70
2022-10-07T22:19:51.802Z,100841.30
2022-10-07T22:23:30.471Z,100839.61
2022-10-07T22:27:07.455Z,100830.48
2022-10-07T22:30:44.976Z,100825.45
2022-10-07T22:34:43.752Z,100819.38
2022-10-07T22:38:20.308Z,100813.95
2022-10-07T22:41:58.791Z,100808.00
2022-10-07T22:45:36.607Z,100805.32
2022-10-07T22:49:19.174Z,100805.21
2022-10-07T22:52:51.033Z,100798.89
2022-10-07T22:56:29.988Z,100793.80
2022-10-07T23:00:07.111Z,100792.23
2022-10-07T23:03:44.860Z,100787.77
2022-10-07T23:07:22.540Z,100784.83
2022-10-07T23:10:59.913Z,100781.98
2022-10-07T23:14:37.945Z,100779.22
2022-10-07T23:18:14.956Z,100773.08
2022-10-07T23:21:54.961Z,100767.52
2022-10-07T23:25:31.428Z,100765.05
2022-10-07T23:29:09.358Z,100758.63
2022-10-07T23:32:46.689Z,100759.52
2022-10-07T23:36:26.764Z,100758.11
2022-10-07T23:40:03.026Z,100753.69
2022-10-07T23:43:41.188Z,100750.23
2022-10-07T23:47:22.814Z,100746.50
2022-10-07T23:50:59.318Z,100741.36
2022-10-07T23:54:36.804Z,100739.42
2022-10-07T23:58:17.333Z,100736.69
